sensor_id;sensor_type;location;lat;lon;timestamp;temperature;humidity
69162;DHT22;56269;51.738;21.652;2023-03-17T00:01:46;-3.30;99.99
69162;DHT22;56269;51.738;21.652;2023-03-17T00:04:20;-3.30;99.99
69162;DHT22;56269;51.738;21.652;2023-03-17T00:06:47;-3.30;99.99
69162;DHT22;56269;51.738;21.652;2023-03-17T00:09:17;-3.34;99.99
69162;DHT22;56269;51.738;21.652;2023-03-17T00:11:44;-3.40;99.99
69162;DHT22;56269;51.738;21.652;2023-03-17T00:14:11;-3.41;99.99
69162;DHT22;56269;51.738;21.652;2023-03-17T00:16:43;-3.39;99.99
69162;DHT22;56269;51.738;21.652;2023-03-17T00:19:22;-3.24;99.99
69162;DHT22;56269;51.738;21.652;2023-03-17T00:21:50;-3.26;99.98
69162;DHT22;56269;51.738;21.652;2023-03-17T00:24:16;-3.33;99.85
69162;DHT22;56269;51.738;21.652;2023-03-17T00:26:42;-3.41;99.99
69162;DHT22;56269;51.738;21.652;2023-03-17T00:29:09;-3.46;99.99
69162;DHT22;56269;51.738;21.652;2023-03-17T00:31:36;-3.48;99.99
69162;DHT22;56269;51.738;21.652;2023-03-17T00:34:03;-3.47;99.99
69162;DHT22;56269;51.738;21.652;2023-03-17T00:36:31;-3.36;99.99
69162;DHT22;56269;51.738;21.652;2023-03-17T00:38:59;-3.30;99.99
69162;DHT22;56269;51.738;21.652;2023-03-17T00:41:25;-3.21;99.99
69162;DHT22;56269;51.738;21.652;2023-03-17T00:43:52;-3.27;99.99
69162;DHT22;56269;51.738;21.652;2023-03-17T00:46:26;-3.27;99.99
69162;DHT22;56269;51.738;21.652;2023-03-17T00:48:53;-3.24;99.99
69162;DHT22;56269;51.738;21.652;2023-03-17T00:51:20;-3.33;99.99
69162;DHT22;56269;51.738;21.652;2023-03-17T00:53:47;-3.36;99.99
69162;DHT22;56269;51.738;21.652;2023-03-17T00:56:18;-3.39;99.99
69162;DHT22;56269;51.738;21.652;2023-03-17T00:58:45;-3.34;99.99
69162;DHT22;56269;51.738;21.652;2023-03-17T01:01:12;-3.34;99.99
69162;DHT22;56269;51.738;21.652;2023-03-17T01:03:39;-3.31;99.99
69162;DHT22;56269;51.738;21.652;2023-03-17T01:06:09;-3.41;99.57
69162;DHT22;56269;51.738;21.652;2023-03-17T01:08:37;-3.61;99.50
69162;DHT22;56269;51.738;21.652;2023-03-17T01:11:04;-3.57;99.74
69162;DHT22;56269;51.738;21.652;2023-03-17T01:13:30;-3.62;99.75
69162;DHT22;56269;51.738;21.652;2023-03-17T01:15:56;-3.71;99.92
69162;DHT22;56269;51.738;21.652;2023-03-17T01:18:23;-3.78;99.99
69162;DHT22;56269;51.738;21.652;2023-03-17T01:20:49;-3.86;99.99
69162;DHT22;56269;51.738;21.652;2023-03-17T01:23:15;-4.02;99.69
69162;DHT22;56269;51.738;21.652;2023-03-17T01:25:43;-4.07;99.99
69162;DHT22;56269;51.738;21.652;2023-03-17T01:28:14;-4.09;99.99
69162;DHT22;56269;51.738;21.652;2023-03-17T01:30:41;-4.06;99.99
69162;DHT22;56269;51.738;21.652;2023-03-17T01:33:09;-4.03;99.99
69162;DHT22;56269;51.738;21.652;2023-03-17T01:35:36;-3.91;99.99
69162;DHT22;56269;51.738;21.652;2023-03-17T01:38:04;-3.89;99.99
69162;DHT22;56269;51.738;21.652;2023-03-17T01:40:33;-3.89;99.99
69162;DHT22;56269;51.738;21.652;2023-03-17T01:48:51;-3.92;99.99
69162;DHT22;56269;51.738;21.652;2023-03-17T01:51:48;-3.93;99.99
69162;DHT22;56269;51.738;21.652;2023-03-17T01:55:05;-3.95;99.99
69162;DHT22;56269;51.738;21.652;2023-03-17T01:59:46;-3.96;99.99
69162;DHT22;56269;51.738;21.652;2023-03-17T02:02:19;-4.05;99.99
69162;DHT22;56269;51.738;21.652;2023-03-17T02:04:49;-4.05;99.99
69162;DHT22;56269;51.738;21.652;2023-03-17T02:07:18;-4.02;99.99
69162;DHT22;56269;51.738;21.652;2023-03-17T02:09:46;-4.10;99.99
69162;DHT22;56269;51.738;21.652;2023-03-17T02:12:12;-4.09;99.99
69162;DHT22;56269;51.738;21.652;2023-03-17T02:14:40;-4.09;99.99
69162;DHT22;56269;51.738;21.652;2023-03-17T02:17:07;-4.01;99.99
69162;DHT22;56269;51.738;21.652;2023-03-17T02:19:33;-4.03;99.99
69162;DHT22;56269;51.738;21.652;2023-03-17T02:22:00;-4.09;99.99
69162;DHT22;56269;51.738;21.652;2023-03-17T02:24:48;-3.96;99.99
69162;DHT22;56269;51.738;21.652;2023-03-17T02:27:20;-3.91;99.99
69162;DHT22;56269;51.738;21.652;2023-03-17T02:29:48;-4.01;99.99
69162;DHT22;56269;51.738;21.652;2023-03-17T02:32:17;-4.02;99.99
69162;DHT22;56269;51.738;21.652;2023-03-17T02:34:46;-4.06;99.99
69162;DHT22;56269;51.738;21.652;2023-03-17T02:37:13;-4.02;99.99
69162;DHT22;56269;51.738;21.652;2023-03-17T02:39:39;-3.99;99.99
69162;DHT22;56269;51.738;21.652;2023-03-17T02:42:05;-3.96;99.99
69162;DHT22;56269;51.738;21.652;2023-03-17T02:44:32;-3.99;99.99
69162;DHT22;56269;51.738;21.652;2023-03-17T02:46:58;-4.05;99.99
69162;DHT22;56269;51.738;21.652;2023-03-17T02:49:25;-4.09;99.99
69162;DHT22;56269;51.738;21.652;2023-03-17T02:51:52;-3.89;99.99
69162;DHT22;56269;51.738;21.652;2023-03-17T02:54:18;-4.01;99.99
69162;DHT22;56269;51.738;21.652;2023-03-17T02:56:44;-4.02;99.99
69162;DHT22;56269;51.738;21.652;2023-03-17T02:59:11;-4.01;99.99
69162;DHT22;56269;51.738;21.652;2023-03-17T03:01:37;-4.07;99.99
69162;DHT22;56269;51.738;21.652;2023-03-17T03:04:05;-4.05;99.99
69162;DHT22;56269;51.738;21.652;2023-03-17T03:06:32;-4.03;99.99
69162;DHT22;56269;51.738;21.652;2023-03-17T03:08:58;-4.13;99.99
69162;DHT22;56269;51.738;21.652;2023-03-17T03:11:24;-4.07;99.99
69162;DHT22;56269;51.738;21.652;2023-03-17T03:13:51;-4.13;99.99
69162;DHT22;56269;51.738;21.652;2023-03-17T03:16:17;-4.12;99.99
69162;DHT22;56269;51.738;21.652;2023-03-17T03:18:44;-4.05;99.99
69162;DHT22;56269;51.738;21.652;2023-03-17T03:21:10;-4.05;99.99
69162;DHT22;56269;51.738;21.652;2023-03-17T03:23:36;-3.95;99.99
69162;DHT22;56269;51.738;21.652;2023-03-17T03:26:03;-3.96;99.99
69162;DHT22;56269;51.738;21.652;2023-03-17T03:28:29;-4.01;99.99
69162;DHT22;56269;51.738;21.652;2023-03-17T03:30:55;-4.09;99.99
69162;DHT22;56269;51.738;21.652;2023-03-17T03:33:22;-4.09;99.99
69162;DHT22;56269;51.738;21.652;2023-03-17T03:35:48;-4.05;99.99
69162;DHT22;56269;51.738;21.652;2023-03-17T03:38:14;-3.98;99.99
69162;DHT22;56269;51.738;21.652;2023-03-17T03:40:40;-3.99;99.99
69162;DHT22;56269;51.738;21.652;2023-03-17T03:43:07;-3.98;99.99
69162;DHT22;56269;51.738;21.652;2023-03-17T03:45:33;-3.96;99.99
69162;DHT22;56269;51.738;21.652;2023-03-17T03:48:00;-3.96;99.99
69162;DHT22;56269;51.738;21.652;2023-03-17T03:50:26;-3.88;99.99
69162;DHT22;56269;51.738;21.652;2023-03-17T03:52:52;-3.91;99.99
69162;DHT22;56269;51.738;21.652;2023-03-17T03:55:18;-3.99;99.99
69162;DHT22;56269;51.738;21.652;2023-03-17T03:57:45;-3.98;99.99
69162;DHT22;56269;51.738;21.652;2023-03-17T04:00:11;-3.92;99.99
69162;DHT22;56269;51.738;21.652;2023-03-17T04:02:42;-3.96;99.99
69162;DHT22;56269;51.738;21.652;2023-03-17T04:05:18;-4.03;99.99
69162;DHT22;56269;51.738;21.652;2023-03-17T04:07:45;-4.01;99.99
69162;DHT22;56269;51.738;21.652;2023-03-17T04:10:13;-3.92;99.99
69162;DHT22;56269;51.738;21.652;2023-03-17T04:12:41;-3.86;99.99
69162;DHT22;56269;51.738;21.652;2023-03-17T04:15:08;-3.95;99.99
69162;DHT22;56269;51.738;21.652;2023-03-17T04:17:36;-4.02;99.99
69162;DHT22;56269;51.738;21.652;2023-03-17T04:20:03;-3.99;99.99
69162;DHT22;56269;51.738;21.652;2023-03-17T04:22:29;-4.06;99.99
69162;DHT22;56269;51.738;21.652;2023-03-17T04:24:55;-4.15;99.99
69162;DHT22;56269;51.738;21.652;2023-03-17T04:27:22;-4.19;99.99
69162;DHT22;56269;51.738;21.652;2023-03-17T04:29:48;-4.23;99.99
69162;DHT22;56269;51.738;21.652;2023-03-17T04:32:15;-4.27;99.99
69162;DHT22;56269;51.738;21.652;2023-03-17T04:34:41;-4.23;99.99
69162;DHT22;56269;51.738;21.652;2023-03-17T04:37:09;-4.27;99.99
69162;DHT22;56269;51.738;21.652;2023-03-17T04:39:35;-4.32;99.99
69162;DHT22;56269;51.738;21.652;2023-03-17T04:42:03;-4.23;99.99
69162;DHT22;56269;51.738;21.652;2023-03-17T04:44:29;-4.22;99.99
69162;DHT22;56269;51.738;21.652;2023-03-17T04:46:55;-4.27;99.99
69162;DHT22;56269;51.738;21.652;2023-03-17T04:49:22;-4.27;99.99
69162;DHT22;56269;51.738;21.652;2023-03-17T04:51:48;-4.22;99.99
69162;DHT22;56269;51.738;21.652;2023-03-17T04:54:15;-4.16;99.99
69162;DHT22;56269;51.738;21.652;2023-03-17T04:56:41;-4.13;99.99
69162;DHT22;56269;51.738;21.652;2023-03-17T04:59:07;-4.16;99.99
69162;DHT22;56269;51.738;21.652;2023-03-17T05:01:34;-4.10;99.99
69162;DHT22;56269;51.738;21.652;2023-03-17T05:04:00;-4.12;99.99
69162;DHT22;56269;51.738;21.652;2023-03-17T05:06:27;-4.12;99.99
69162;DHT22;56269;51.738;21.652;2023-03-17T05:08:52;-4.05;99.99
69162;DHT22;56269;51.738;21.652;2023-03-17T05:11:19;-4.01;99.99
69162;DHT22;56269;51.738;21.652;2023-03-17T05:13:45;-3.93;99.99
69162;DHT22;56269;51.738;21.652;2023-03-17T05:16:12;-3.88;99.99
69162;DHT22;56269;51.738;21.652;2023-03-17T05:18:38;-3.82;99.99
69162;DHT22;56269;51.738;21.652;2023-03-17T05:21:05;-3.71;99.99
69162;DHT22;56269;51.738;21.652;2023-03-17T05:23:33;-3.65;99.99
69162;DHT22;56269;51.738;21.652;2023-03-17T05:26:00;-3.58;99.99
69162;DHT22;56269;51.738;21.652;2023-03-17T05:28:26;-3.52;99.99
69162;DHT22;56269;51.738;21.652;2023-03-17T05:30:54;-3.52;99.99
69162;DHT22;56269;51.738;21.652;2023-03-17T05:33:20;-3.48;99.99
69162;DHT22;56269;51.738;21.652;2023-03-17T05:35:47;-3.41;99.99
69162;DHT22;56269;51.738;21.652;2023-03-17T05:38:13;-3.37;99.99
69162;DHT22;56269;51.738;21.652;2023-03-17T05:40:41;-3.27;99.99
69162;DHT22;56269;51.738;21.652;2023-03-17T05:43:08;-3.24;99.99
69162;DHT22;56269;51.738;21.652;2023-03-17T05:45:34;-3.10;99.99
69162;DHT22;56269;51.738;21.652;2023-03-17T05:48:00;-3.04;99.99
69162;DHT22;56269;51.738;21.652;2023-03-17T05:50:27;-2.92;99.99
69162;DHT22;56269;51.738;21.652;2023-03-17T05:52:53;-2.79;99.99
69162;DHT22;56269;51.738;21.652;2023-03-17T05:55:19;-2.55;99.99
69162;DHT22;56269;51.738;21.652;2023-03-17T05:57:46;-2.33;99.99
69162;DHT22;56269;51.738;21.652;2023-03-17T06:00:13;-1.94;99.99
69162;DHT22;56269;51.738;21.652;2023-03-17T06:02:41;-1.45;99.99
69162;DHT22;56269;51.738;21.652;2023-03-17T06:05:08;-1.04;99.47
69162;DHT22;56269;51.738;21.652;2023-03-17T06:07:34;-0.69;97.84
69162;DHT22;56269;51.738;21.652;2023-03-17T06:10:02;-0.22;98.04
69162;DHT22;56269;51.738;21.652;2023-03-17T06:12:28;0.23;95.13
69162;DHT22;56269;51.738;21.652;2023-03-17T06:14:55;0.52;93.44
69162;DHT22;56269;51.738;21.652;2023-03-17T06:17:21;0.83;92.38
69162;DHT22;56269;51.738;21.652;2023-03-17T06:19:47;1.03;91.92
69162;DHT22;56269;51.738;21.652;2023-03-17T06:22:13;1.24;90.19
69162;DHT22;56269;51.738;21.652;2023-03-17T06:24:40;1.25;88.61
69162;DHT22;56269;51.738;21.652;2023-03-17T06:27:06;1.39;89.17
69162;DHT22;56269;51.738;21.652;2023-03-17T06:29:32;1.58;89.07
69162;DHT22;56269;51.738;21.652;2023-03-17T06:31:58;1.73;88.14
69162;DHT22;56269;51.738;21.652;2023-03-17T06:34:24;1.83;87.73
69162;DHT22;56269;51.738;21.652;2023-03-17T06:36:51;2.00;86.89
69162;DHT22;56269;51.738;21.652;2023-03-17T06:39:17;2.27;87.11
69162;DHT22;56269;51.738;21.652;2023-03-17T06:41:43;2.31;86.22
69162;DHT22;56269;51.738;21.652;2023-03-17T06:44:09;2.59;86.20
69162;DHT22;56269;51.738;21.652;2023-03-17T06:46:36;2.98;85.56
69162;DHT22;56269;51.738;21.652;2023-03-17T06:49:02;3.00;83.08
69162;DHT22;56269;51.738;21.652;2023-03-17T06:51:29;3.05;83.08
69162;DHT22;56269;51.738;21.652;2023-03-17T06:53:57;3.10;82.35
69162;DHT22;56269;51.738;21.652;2023-03-17T06:56:23;3.29;82.88
69162;DHT22;56269;51.738;21.652;2023-03-17T06:58:50;3.49;82.36
69162;DHT22;56269;51.738;21.652;2023-03-17T07:01:17;3.88;83.16
69162;DHT22;56269;51.738;21.652;2023-03-17T07:03:44;4.06;81.54
69162;DHT22;56269;51.738;21.652;2023-03-17T07:06:10;4.21;79.92
69162;DHT22;56269;51.738;21.652;2023-03-17T07:08:36;4.39;79.96
69162;DHT22;56269;51.738;21.652;2023-03-17T07:11:03;4.33;78.85
69162;DHT22;56269;51.738;21.652;2023-03-17T07:13:30;4.39;78.96
69162;DHT22;56269;51.738;21.652;2023-03-17T07:16:01;4.56;78.55
69162;DHT22;56269;51.738;21.652;2023-03-17T07:18:30;4.59;77.58
69162;DHT22;56269;51.738;21.652;2023-03-17T07:21:00;4.49;76.73
69162;DHT22;56269;51.738;21.652;2023-03-17T07:23:28;4.70;77.77
69162;DHT22;56269;51.738;21.652;2023-03-17T07:25:55;5.35;75.84
69162;DHT22;56269;51.738;21.652;2023-03-17T07:28:23;5.44;76.04
69162;DHT22;56269;51.738;21.652;2023-03-17T07:30:49;5.15;75.65
69162;DHT22;56269;51.738;21.652;2023-03-17T07:33:17;5.00;75.89
69162;DHT22;56269;51.738;21.652;2023-03-17T07:35:48;5.24;73.53
69162;DHT22;56269;51.738;21.652;2023-03-17T07:38:16;5.25;74.08
69162;DHT22;56269;51.738;21.652;2023-03-17T07:40:45;5.32;74.53
69162;DHT22;56269;51.738;21.652;2023-03-17T07:43:13;5.58;75.14
69162;DHT22;56269;51.738;21.652;2023-03-17T07:45:41;5.55;73.48
69162;DHT22;56269;51.738;21.652;2023-03-17T07:48:08;5.69;73.57
69162;DHT22;56269;51.738;21.652;2023-03-17T07:50:35;5.78;71.78
69162;DHT22;56269;51.738;21.652;2023-03-17T07:53:03;6.16;72.79
69162;DHT22;56269;51.738;21.652;2023-03-17T07:55:30;6.65;71.98
69162;DHT22;56269;51.738;21.652;2023-03-17T07:57:57;6.60;69.01
69162;DHT22;56269;51.738;21.652;2023-03-17T08:00:24;6.47;69.85
69162;DHT22;56269;51.738;21.652;2023-03-17T08:02:51;6.61;69.94
69162;DHT22;56269;51.738;21.652;2023-03-17T08:05:17;6.57;68.12
69162;DHT22;56269;51.738;21.652;2023-03-17T08:07:48;6.02;68.15
69162;DHT22;56269;51.738;21.652;2023-03-17T08:10:22;5.68;69.42
69162;DHT22;56269;51.738;21.652;2023-03-17T08:12:49;5.56;69.93
69162;DHT22;56269;51.738;21.652;2023-03-17T08:15:17;5.27;69.63
69162;DHT22;56269;51.738;21.652;2023-03-17T08:17:43;5.44;71.22
69162;DHT22;56269;51.738;21.652;2023-03-17T08:20:10;5.25;69.98
69162;DHT22;56269;51.738;21.652;2023-03-17T08:22:37;5.23;70.07
69162;DHT22;56269;51.738;21.652;2023-03-17T08:25:03;5.27;70.55
69162;DHT22;56269;51.738;21.652;2023-03-17T08:27:29;5.42;71.24
69162;DHT22;56269;51.738;21.652;2023-03-17T08:29:56;5.44;69.77
69162;DHT22;56269;51.738;21.652;2023-03-17T08:32:22;5.42;70.27
69162;DHT22;56269;51.738;21.652;2023-03-17T08:34:52;5.24;68.77
69162;DHT22;56269;51.738;21.652;2023-03-17T08:37:19;5.34;69.90
69162;DHT22;56269;51.738;21.652;2023-03-17T08:39:47;5.48;68.99
69162;DHT22;56269;51.738;21.652;2023-03-17T08:42:13;5.97;69.26
69162;DHT22;56269;51.738;21.652;2023-03-17T08:44:40;6.70;69.46
69162;DHT22;56269;51.738;21.652;2023-03-17T08:47:07;7.02;65.37
69162;DHT22;56269;51.738;21.652;2023-03-17T08:49:33;7.50;63.74
69162;DHT22;56269;51.738;21.652;2023-03-17T08:52:01;7.90;65.84
69162;DHT22;56269;51.738;21.652;2023-03-17T08:54:28;7.30;64.27
69162;DHT22;56269;51.738;21.652;2023-03-17T08:56:54;7.70;64.43
69162;DHT22;56269;51.738;21.652;2023-03-17T08:59:20;7.88;63.74
69162;DHT22;56269;51.738;21.652;2023-03-17T09:01:47;7.78;59.80
69162;DHT22;56269;51.738;21.652;2023-03-17T09:04:13;7.23;60.31
69162;DHT22;56269;51.738;21.652;2023-03-17T09:06:40;7.20;61.42
69162;DHT22;56269;51.738;21.652;2023-03-17T09:09:06;7.16;60.58
69162;DHT22;56269;51.738;21.652;2023-03-17T09:11:33;7.42;62.35
69162;DHT22;56269;51.738;21.652;2023-03-17T09:13:59;7.57;61.83
69162;DHT22;56269;51.738;21.652;2023-03-17T09:16:26;7.64;62.43
69162;DHT22;56269;51.738;21.652;2023-03-17T09:18:53;7.84;62.30
69162;DHT22;56269;51.738;21.652;2023-03-17T09:21:20;8.28;60.96
69162;DHT22;56269;51.738;21.652;2023-03-17T09:23:46;8.15;60.90
69162;DHT22;56269;51.738;21.652;2023-03-17T09:26:13;8.67;57.24
69162;DHT22;56269;51.738;21.652;2023-03-17T09:28:39;7.90;59.39
69162;DHT22;56269;51.738;21.652;2023-03-17T09:31:06;8.62;58.11
69162;DHT22;56269;51.738;21.652;2023-03-17T09:33:37;8.70;58.62
69162;DHT22;56269;51.738;21.652;2023-03-17T09:36:04;8.73;57.69
69162;DHT22;56269;51.738;21.652;2023-03-17T09:38:31;8.59;55.42
69162;DHT22;56269;51.738;21.652;2023-03-17T09:52:01;8.63;56.87
69162;DHT22;56269;51.738;21.652;2023-03-17T09:54:34;8.52;56.21
69162;DHT22;56269;51.738;21.652;2023-03-17T09:57:25;8.91;58.51
69162;DHT22;56269;51.738;21.652;2023-03-17T10:00:04;8.76;58.14
69162;DHT22;56269;51.738;21.652;2023-03-17T10:02:36;8.97;57.54
69162;DHT22;56269;51.738;21.652;2023-03-17T10:05:22;8.65;56.09
69162;DHT22;56269;51.738;21.652;2023-03-17T10:10:49;8.05;59.09
69162;DHT22;56269;51.738;21.652;2023-03-17T10:16:12;8.65;55.56
69162;DHT22;56269;51.738;21.652;2023-03-17T10:18:50;8.31;57.77
69162;DHT22;56269;51.738;21.652;2023-03-17T10:21:21;8.69;58.17
69162;DHT22;56269;51.738;21.652;2023-03-17T10:23:51;9.31;60.11
69162;DHT22;56269;51.738;21.652;2023-03-17T10:26:23;9.52;53.59
69162;DHT22;56269;51.738;21.652;2023-03-17T10:28:52;8.16;58.56
69162;DHT22;56269;51.738;21.652;2023-03-17T10:31:26;8.86;60.01
69162;DHT22;56269;51.738;21.652;2023-03-17T10:33:55;9.48;57.75
69162;DHT22;56269;51.738;21.652;2023-03-17T10:36:38;9.49;55.13
69162;DHT22;56269;51.738;21.652;2023-03-17T10:39:06;9.55;56.47
69162;DHT22;56269;51.738;21.652;2023-03-17T10:41:39;9.26;56.97
69162;DHT22;56269;51.738;21.652;2023-03-17T10:44:20;9.30;53.26
69162;DHT22;56269;51.738;21.652;2023-03-17T10:46:52;9.52;57.21
69162;DHT22;56269;51.738;21.652;2023-03-17T10:49:19;9.34;54.65
69162;DHT22;56269;51.738;21.652;2023-03-17T10:51:50;9.65;55.59
69162;DHT22;56269;51.738;21.652;2023-03-17T10:54:18;9.55;52.36
69162;DHT22;56269;51.738;21.652;2023-03-17T10:56:47;9.41;53.18
69162;DHT22;56269;51.738;21.652;2023-03-17T10:59:20;9.72;55.01
69162;DHT22;56269;51.738;21.652;2023-03-17T11:01:57;10.00;53.24
69162;DHT22;56269;51.738;21.652;2023-03-17T11:04:28;9.65;54.17
69162;DHT22;56269;51.738;21.652;2023-03-17T11:06:56;9.74;53.37
69162;DHT22;56269;51.738;21.652;2023-03-17T11:09:24;9.08;51.37
69162;DHT22;56269;51.738;21.652;2023-03-17T11:12:27;9.38;53.02
69162;DHT22;56269;51.738;21.652;2023-03-17T11:15:05;9.54;52.36
69162;DHT22;56269;51.738;21.652;2023-03-17T11:17:58;9.07;50.51
69162;DHT22;56269;51.738;21.652;2023-03-17T11:23:41;9.49;51.01
69162;DHT22;56269;51.738;21.652;2023-03-17T11:29:01;9.89;51.94
69162;DHT22;56269;51.738;21.652;2023-03-17T11:31:33;9.57;53.44
69162;DHT22;56269;51.738;21.652;2023-03-17T11:34:07;9.54;55.67
69162;DHT22;56269;51.738;21.652;2023-03-17T11:37:02;9.28;51.08
69162;DHT22;56269;51.738;21.652;2023-03-17T11:39:40;9.41;52.01
69162;DHT22;56269;51.738;21.652;2023-03-17T11:42:36;9.34;54.01
69162;DHT22;56269;51.738;21.652;2023-03-17T11:55:58;9.38;53.56
69162;DHT22;56269;51.738;21.652;2023-03-17T11:58:42;9.48;53.18
69162;DHT22;56269;51.738;21.652;2023-03-17T12:01:25;9.57;54.60
69162;DHT22;56269;51.738;21.652;2023-03-17T12:04:08;9.54;55.76
69162;DHT22;56269;51.738;21.652;2023-03-17T12:06:42;9.93;51.93
69162;DHT22;56269;51.738;21.652;2023-03-17T12:09:25;9.74;53.26
69162;DHT22;56269;51.738;21.652;2023-03-17T12:11:53;9.71;53.97
69162;DHT22;56269;51.738;21.652;2023-03-17T12:14:38;10.23;54.92
69162;DHT22;56269;51.738;21.652;2023-03-17T12:17:21;10.36;52.93
69162;DHT22;56269;51.738;21.652;2023-03-17T12:20:00;10.23;54.22
69162;DHT22;56269;51.738;21.652;2023-03-17T12:22:53;9.96;52.16
69162;DHT22;56269;51.738;21.652;2023-03-17T12:25:29;9.65;52.04
69162;DHT22;56269;51.738;21.652;2023-03-17T12:28:10;9.85;53.43
69162;DHT22;56269;51.738;21.652;2023-03-17T12:30:48;9.96;54.34
69162;DHT22;56269;51.738;21.652;2023-03-17T12:35:46;10.05;52.81
69162;DHT22;56269;51.738;21.652;2023-03-17T12:38:18;10.12;53.44
69162;DHT22;56269;51.738;21.652;2023-03-17T12:44:04;10.68;48.62
69162;DHT22;56269;51.738;21.652;2023-03-17T12:49:39;10.72;49.94
69162;DHT22;56269;51.738;21.652;2023-03-17T12:52:36;11.11;52.69
69162;DHT22;56269;51.738;21.652;2023-03-17T12:55:11;10.51;51.36
69162;DHT22;56269;51.738;21.652;2023-03-17T12:57:46;10.19;50.52
69162;DHT22;56269;51.738;21.652;2023-03-17T13:00:22;9.92;51.59
69162;DHT22;56269;51.738;21.652;2023-03-17T13:03:05;9.90;52.57
69162;DHT22;56269;51.738;21.652;2023-03-17T13:05:32;9.68;52.95
69162;DHT22;56269;51.738;21.652;2023-03-17T13:08:05;9.17;52.18
69162;DHT22;56269;51.738;21.652;2023-03-17T13:10:45;9.39;53.63
69162;DHT22;56269;51.738;21.652;2023-03-17T13:13:45;9.20;53.09
69162;DHT22;56269;51.738;21.652;2023-03-17T13:16:30;9.18;54.92
69162;DHT22;56269;51.738;21.652;2023-03-17T13:19:33;8.84;52.95
69162;DHT22;56269;51.738;21.652;2023-03-17T13:24:48;8.65;55.30
69162;DHT22;56269;51.738;21.652;2023-03-17T13:33:14;9.10;52.76
69162;DHT22;56269;51.738;21.652;2023-03-17T13:38:36;9.14;55.25
69162;DHT22;56269;51.738;21.652;2023-03-17T13:44:32;9.13;52.04
69162;DHT22;56269;51.738;21.652;2023-03-17T13:47:25;9.03;52.28
69162;DHT22;56269;51.738;21.652;2023-03-17T13:50:21;9.08;52.95
69162;DHT22;56269;51.738;21.652;2023-03-17T13:52:52;8.93;50.92
69162;DHT22;56269;51.738;21.652;2023-03-17T13:58:15;9.21;50.03
69162;DHT22;56269;51.738;21.652;2023-03-17T14:00:46;9.17;51.14
69162;DHT22;56269;51.738;21.652;2023-03-17T14:03:18;9.32;51.73
69162;DHT22;56269;51.738;21.652;2023-03-17T14:05:51;9.67;51.01
69162;DHT22;56269;51.738;21.652;2023-03-17T14:08:27;9.48;50.16
69162;DHT22;56269;51.738;21.652;2023-03-17T14:10:56;9.49;49.39
69162;DHT22;56269;51.738;21.652;2023-03-17T14:13:26;9.58;51.70
69162;DHT22;56269;51.738;21.652;2023-03-17T14:16:03;9.61;51.01
69162;DHT22;56269;51.738;21.652;2023-03-17T14:18:35;9.20;49.84
69162;DHT22;56269;51.738;21.652;2023-03-17T14:21:04;9.07;50.50
69162;DHT22;56269;51.738;21.652;2023-03-17T14:23:32;9.00;50.70
69162;DHT22;56269;51.738;21.652;2023-03-17T14:26:01;8.69;50.91
69162;DHT22;56269;51.738;21.652;2023-03-17T14:28:31;8.48;51.58
69162;DHT22;56269;51.738;21.652;2023-03-17T14:31:06;8.38;52.14
69162;DHT22;56269;51.738;21.652;2023-03-17T14:33:37;8.49;51.67
69162;DHT22;56269;51.738;21.652;2023-03-17T14:36:07;8.53;52.42
69162;DHT22;56269;51.738;21.652;2023-03-17T14:38:37;8.48;52.85
69162;DHT22;56269;51.738;21.652;2023-03-17T14:43:45;8.36;51.59
69162;DHT22;56269;51.738;21.652;2023-03-17T14:46:32;8.35;52.79
69162;DHT22;56269;51.738;21.652;2023-03-17T14:49:18;8.28;52.45
69162;DHT22;56269;51.738;21.652;2023-03-17T14:51:50;8.20;53.45
69162;DHT22;56269;51.738;21.652;2023-03-17T14:54:22;8.15;54.34
69162;DHT22;56269;51.738;21.652;2023-03-17T14:56:54;8.02;54.23
69162;DHT22;56269;51.738;21.652;2023-03-17T14:59:38;7.90;55.09
69162;DHT22;56269;51.738;21.652;2023-03-17T15:02:22;7.84;54.09
69162;DHT22;56269;51.738;21.652;2023-03-17T15:04:57;7.74;54.86
69162;DHT22;56269;51.738;21.652;2023-03-17T15:07:40;7.66;55.79
69162;DHT22;56269;51.738;21.652;2023-03-17T15:10:18;7.59;56.21
69162;DHT22;56269;51.738;21.652;2023-03-17T15:12:45;7.47;57.90
69162;DHT22;56269;51.738;21.652;2023-03-17T15:15:25;7.37;56.91
69162;DHT22;56269;51.738;21.652;2023-03-17T15:17:57;7.27;58.72
69162;DHT22;56269;51.738;21.652;2023-03-17T15:20:24;7.20;57.68
69162;DHT22;56269;51.738;21.652;2023-03-17T15:23:20;7.11;57.89
69162;DHT22;56269;51.738;21.652;2023-03-17T15:25:51;7.05;57.76
69162;DHT22;56269;51.738;21.652;2023-03-17T15:28:22;7.05;57.09
69162;DHT22;56269;51.738;21.652;2023-03-17T15:30:51;7.03;57.45
69162;DHT22;56269;51.738;21.652;2023-03-17T15:35:53;6.89;58.88
69162;DHT22;56269;51.738;21.652;2023-03-17T15:38:22;6.85;59.79
69162;DHT22;56269;51.738;21.652;2023-03-17T15:40:48;6.75;60.55
69162;DHT22;56269;51.738;21.652;2023-03-17T15:43:16;6.74;59.84
69162;DHT22;56269;51.738;21.652;2023-03-17T15:45:42;6.71;60.43
69162;DHT22;56269;51.738;21.652;2023-03-17T15:48:19;6.58;61.81
69162;DHT22;56269;51.738;21.652;2023-03-17T15:50:49;6.52;61.20
69162;DHT22;56269;51.738;21.652;2023-03-17T15:53:15;6.48;62.08
69162;DHT22;56269;51.738;21.652;2023-03-17T15:55:42;6.38;62.63
69162;DHT22;56269;51.738;21.652;2023-03-17T15:58:08;6.44;61.43
69162;DHT22;56269;51.738;21.652;2023-03-17T16:00:34;6.41;61.37
69162;DHT22;56269;51.738;21.652;2023-03-17T16:03:28;6.44;61.67
69162;DHT22;56269;51.738;21.652;2023-03-17T16:05:55;6.41;61.53
69162;DHT22;56269;51.738;21.652;2023-03-17T16:08:21;6.38;62.16
69162;DHT22;56269;51.738;21.652;2023-03-17T16:10:48;6.37;61.71
69162;DHT22;56269;51.738;21.652;2023-03-17T16:13:14;6.41;61.30
69162;DHT22;56269;51.738;21.652;2023-03-17T16:15:42;6.38;61.79
69162;DHT22;56269;51.738;21.652;2023-03-17T16:18:17;6.37;61.42
69162;DHT22;56269;51.738;21.652;2023-03-17T16:20:46;6.27;62.48
69162;DHT22;56269;51.738;21.652;2023-03-17T16:23:18;6.21;62.40
69162;DHT22;56269;51.738;21.652;2023-03-17T16:25:45;6.19;63.11
69162;DHT22;56269;51.738;21.652;2023-03-17T16:28:34;6.13;63.22
69162;DHT22;56269;51.738;21.652;2023-03-17T16:31:01;6.05;63.52
69162;DHT22;56269;51.738;21.652;2023-03-17T16:33:32;6.03;63.24
69162;DHT22;56269;51.738;21.652;2023-03-17T16:36:01;6.07;62.48
69162;DHT22;56269;51.738;21.652;2023-03-17T16:38:29;6.03;63.05
69162;DHT22;56269;51.738;21.652;2023-03-17T16:41:03;5.93;63.60
69162;DHT22;56269;51.738;21.652;2023-03-17T16:43:32;5.83;64.07
69162;DHT22;56269;51.738;21.652;2023-03-17T16:46:02;5.85;63.62
69162;DHT22;56269;51.738;21.652;2023-03-17T16:48:28;5.79;64.27
69162;DHT22;56269;51.738;21.652;2023-03-17T16:50:56;5.78;63.89
69162;DHT22;56269;51.738;21.652;2023-03-17T16:53:22;5.69;64.79
69162;DHT22;56269;51.738;21.652;2023-03-17T16:55:50;5.59;64.68
69162;DHT22;56269;51.738;21.652;2023-03-17T17:00:46;5.60;64.80